sensor_id;sensor_type;location;lat;lon;timestamp;P1;durP1;ratioP1;P2;durP2;ratioP2
42600;SDS011;28229;48.856;9.088;2023-04-07T00:00:19;9.67;;;7.37;;
42600;SDS011;28229;48.856;9.088;2023-04-07T00:02:45;10.17;;;7.13;;
42600;SDS011;28229;48.856;9.088;2023-04-07T00:05:11;8.73;;;7.67;;
42600;SDS011;28229;48.856;9.088;2023-04-07T00:07:38;10.90;;;7.70;;
42600;SDS011;28229;48.856;9.088;2023-04-07T00:10:04;9.27;;;7.87;;
42600;SDS011;28229;48.856;9.088;2023-04-07T00:12:30;10.13;;;7.67;;
42600;SDS011;28229;48.856;9.088;2023-04-07T00:14:57;8.50;;;7.00;;
42600;SDS011;28229;48.856;9.088;2023-04-07T00:17:23;8.27;;;6.77;;
42600;SDS011;28229;48.856;9.088;2023-04-07T00:19:49;8.60;;;7.37;;
42600;SDS011;28229;48.856;9.088;2023-04-07T00:22:15;9.40;;;7.03;;
42600;SDS011;28229;48.856;9.088;2023-04-07T00:24:42;10.00;;;7.43;;
42600;SDS011;28229;48.856;9.088;2023-04-07T00:27:23;9.00;;;7.20;;
42600;SDS011;28229;48.856;9.088;2023-04-07T00:29:57;9.43;;;7.10;;
42600;SDS011;28229;48.856;9.088;2023-04-07T00:32:23;9.47;;;7.57;;
42600;SDS011;28229;48.856;9.088;2023-04-07T00:34:49;9.07;;;7.30;;
42600;SDS011;28229;48.856;9.088;2023-04-07T00:37:15;9.80;;;7.10;;
42600;SDS011;28229;48.856;9.088;2023-04-07T00:39:42;8.80;;;7.27;;
42600;SDS011;28229;48.856;9.088;2023-04-07T00:42:08;8.13;;;6.33;;
42600;SDS011;28229;48.856;9.088;2023-04-07T00:44:34;9.37;;;6.97;;
42600;SDS011;28229;48.856;9.088;2023-04-07T00:47:00;9.73;;;7.53;;
42600;SDS011;28229;48.856;9.088;2023-04-07T00:49:27;9.30;;;7.13;;
42600;SDS011;28229;48.856;9.088;2023-04-07T00:51:54;8.43;;;6.87;;
42600;SDS011;28229;48.856;9.088;2023-04-07T00:54:22;9.47;;;7.47;;
42600;SDS011;28229;48.856;9.088;2023-04-07T00:56:49;10.73;;;7.37;;
42600;SDS011;28229;48.856;9.088;2023-04-07T00:59:15;10.37;;;7.67;;
42600;SDS011;28229;48.856;9.088;2023-04-07T01:01:50;9.33;;;7.63;;
42600;SDS011;28229;48.856;9.088;2023-04-07T01:04:28;10.07;;;7.43;;
42600;SDS011;28229;48.856;9.088;2023-04-07T01:07:05;9.47;;;7.53;;
42600;SDS011;28229;48.856;9.088;2023-04-07T01:09:45;10.37;;;8.20;;
42600;SDS011;28229;48.856;9.088;2023-04-07T01:12:22;10.97;;;7.63;;
42600;SDS011;28229;48.856;9.088;2023-04-07T01:14:54;11.83;;;8.03;;
42600;SDS011;28229;48.856;9.088;2023-04-07T01:17:35;10.03;;;8.10;;
42600;SDS011;28229;48.856;9.088;2023-04-07T01:20:04;10.00;;;7.70;;
42600;SDS011;28229;48.856;9.088;2023-04-07T01:22:41;9.73;;;7.90;;
42600;SDS011;28229;48.856;9.088;2023-04-07T01:30:33;11.87;;;8.17;;
42600;SDS011;28229;48.856;9.088;2023-04-07T01:33:03;11.87;;;8.07;;
42600;SDS011;28229;48.856;9.088;2023-04-07T01:35:31;9.97;;;7.97;;
42600;SDS011;28229;48.856;9.088;2023-04-07T01:37:59;10.03;;;8.10;;
42600;SDS011;28229;48.856;9.088;2023-04-07T01:40:27;8.93;;;8.00;;
42600;SDS011;28229;48.856;9.088;2023-04-07T01:42:57;9.33;;;8.10;;
42600;SDS011;28229;48.856;9.088;2023-04-07T01:45:26;9.70;;;7.40;;
42600;SDS011;28229;48.856;9.088;2023-04-07T01:47:53;10.07;;;8.07;;
42600;SDS011;28229;48.856;9.088;2023-04-07T01:50:20;9.77;;;8.40;;
42600;SDS011;28229;48.856;9.088;2023-04-07T01:52:48;11.67;;;8.53;;
42600;SDS011;28229;48.856;9.088;2023-04-07T01:55:14;11.23;;;7.73;;
42600;SDS011;28229;48.856;9.088;2023-04-07T01:57:52;10.17;;;8.07;;
42600;SDS011;28229;48.856;9.088;2023-04-07T02:00:21;11.07;;;8.33;;
42600;SDS011;28229;48.856;9.088;2023-04-07T02:02:54;10.93;;;7.60;;
42600;SDS011;28229;48.856;9.088;2023-04-07T02:05:30;10.97;;;8.47;;
42600;SDS011;28229;48.856;9.088;2023-04-07T02:08:00;9.73;;;8.20;;
42600;SDS011;28229;48.856;9.088;2023-04-07T02:10:30;10.40;;;8.23;;
42600;SDS011;28229;48.856;9.088;2023-04-07T02:13:00;10.00;;;8.23;;
42600;SDS011;28229;48.856;9.088;2023-04-07T02:15:29;9.93;;;8.33;;
42600;SDS011;28229;48.856;9.088;2023-04-07T02:17:57;12.63;;;8.50;;
42600;SDS011;28229;48.856;9.088;2023-04-07T02:20:25;8.67;;;7.77;;
42600;SDS011;28229;48.856;9.088;2023-04-07T02:22:53;11.10;;;8.37;;
42600;SDS011;28229;48.856;9.088;2023-04-07T02:27:53;10.57;;;8.40;;
42600;SDS011;28229;48.856;9.088;2023-04-07T02:30:21;10.37;;;8.10;;
42600;SDS011;28229;48.856;9.088;2023-04-07T02:32:48;11.23;;;8.30;;
42600;SDS011;28229;48.856;9.088;2023-04-07T02:35:14;11.57;;;8.67;;
42600;SDS011;28229;48.856;9.088;2023-04-07T02:37:42;10.30;;;8.40;;
42600;SDS011;28229;48.856;9.088;2023-04-07T02:40:09;10.40;;;7.80;;
42600;SDS011;28229;48.856;9.088;2023-04-07T02:42:35;10.00;;;8.00;;
42600;SDS011;28229;48.856;9.088;2023-04-07T02:45:02;12.00;;;8.07;;
42600;SDS011;28229;48.856;9.088;2023-04-07T02:47:29;10.10;;;7.80;;
42600;SDS011;28229;48.856;9.088;2023-04-07T02:49:56;9.00;;;7.60;;
42600;SDS011;28229;48.856;9.088;2023-04-07T02:52:24;8.47;;;7.33;;
42600;SDS011;28229;48.856;9.088;2023-04-07T02:54:51;10.63;;;8.10;;
42600;SDS011;28229;48.856;9.088;2023-04-07T02:57:21;10.47;;;8.07;;
42600;SDS011;28229;48.856;9.088;2023-04-07T02:59:50;11.30;;;8.60;;
42600;SDS011;28229;48.856;9.088;2023-04-07T03:02:17;8.80;;;7.77;;
42600;SDS011;28229;48.856;9.088;2023-04-07T03:04:43;10.27;;;8.40;;
42600;SDS011;28229;48.856;9.088;2023-04-07T03:07:09;9.37;;;7.80;;
42600;SDS011;28229;48.856;9.088;2023-04-07T03:09:35;11.97;;;8.17;;
42600;SDS011;28229;48.856;9.088;2023-04-07T03:12:02;11.43;;;8.87;;
42600;SDS011;28229;48.856;9.088;2023-04-07T03:14:32;10.67;;;8.30;;
42600;SDS011;28229;48.856;9.088;2023-04-07T03:17:00;11.10;;;8.40;;
42600;SDS011;28229;48.856;9.088;2023-04-07T03:19:26;11.77;;;8.50;;
42600;SDS011;28229;48.856;9.088;2023-04-07T03:21:52;9.27;;;7.77;;
42600;SDS011;28229;48.856;9.088;2023-04-07T03:24:19;9.30;;;7.53;;
42600;SDS011;28229;48.856;9.088;2023-04-07T03:26:46;10.37;;;8.10;;
42600;SDS011;28229;48.856;9.088;2023-04-07T03:29:19;10.70;;;8.40;;
42600;SDS011;28229;48.856;9.088;2023-04-07T03:31:46;10.60;;;8.23;;
42600;SDS011;28229;48.856;9.088;2023-04-07T03:34:14;11.27;;;8.57;;
42600;SDS011;28229;48.856;9.088;2023-04-07T03:36:40;10.47;;;7.90;;
42600;SDS011;28229;48.856;9.088;2023-04-07T03:39:07;11.00;;;8.30;;
42600;SDS011;28229;48.856;9.088;2023-04-07T03:41:33;12.37;;;8.80;;
42600;SDS011;28229;48.856;9.088;2023-04-07T03:44:00;10.07;;;7.83;;
42600;SDS011;28229;48.856;9.088;2023-04-07T03:46:27;10.93;;;8.17;;
42600;SDS011;28229;48.856;9.088;2023-04-07T03:48:54;9.63;;;7.80;;
42600;SDS011;28229;48.856;9.088;2023-04-07T03:51:21;8.73;;;7.60;;
42600;SDS011;28229;48.856;9.088;2023-04-07T03:53:54;10.27;;;7.50;;
42600;SDS011;28229;48.856;9.088;2023-04-07T03:56:31;10.90;;;8.30;;
42600;SDS011;28229;48.856;9.088;2023-04-07T03:58:58;8.97;;;7.43;;
42600;SDS011;28229;48.856;9.088;2023-04-07T04:01:32;10.60;;;7.87;;
42600;SDS011;28229;48.856;9.088;2023-04-07T04:04:05;9.97;;;7.67;;
42600;SDS011;28229;48.856;9.088;2023-04-07T04:06:31;8.70;;;7.57;;
42600;SDS011;28229;48.856;9.088;2023-04-07T04:09:06;9.80;;;8.33;;
42600;SDS011;28229;48.856;9.088;2023-04-07T04:11:36;9.67;;;7.13;;
42600;SDS011;28229;48.856;9.088;2023-04-07T04:14:04;10.90;;;8.70;;
42600;SDS011;28229;48.856;9.088;2023-04-07T04:16:33;10.80;;;8.20;;
42600;SDS011;28229;48.856;9.088;2023-04-07T04:19:04;9.73;;;7.90;;
42600;SDS011;28229;48.856;9.088;2023-04-07T04:21:31;10.73;;;8.00;;
42600;SDS011;28229;48.856;9.088;2023-04-07T04:23:57;11.23;;;9.13;;
42600;SDS011;28229;48.856;9.088;2023-04-07T04:26:24;11.07;;;7.97;;
42600;SDS011;28229;48.856;9.088;2023-04-07T04:28:53;9.97;;;8.10;;
42600;SDS011;28229;48.856;9.088;2023-04-07T04:31:21;10.50;;;8.80;;
42600;SDS011;28229;48.856;9.088;2023-04-07T04:33:47;12.00;;;8.97;;
42600;SDS011;28229;48.856;9.088;2023-04-07T04:36:14;10.60;;;8.73;;
42600;SDS011;28229;48.856;9.088;2023-04-07T04:38:40;10.33;;;8.37;;
42600;SDS011;28229;48.856;9.088;2023-04-07T04:41:14;10.80;;;8.40;;
42600;SDS011;28229;48.856;9.088;2023-04-07T04:43:41;11.10;;;8.60;;
42600;SDS011;28229;48.856;9.088;2023-04-07T04:46:08;9.97;;;8.23;;
42600;SDS011;28229;48.856;9.088;2023-04-07T04:48:41;9.87;;;8.30;;
42600;SDS011;28229;48.856;9.088;2023-04-07T04:51:07;9.70;;;8.23;;
42600;SDS011;28229;48.856;9.088;2023-04-07T04:53:33;9.17;;;7.90;;
42600;SDS011;28229;48.856;9.088;2023-04-07T04:56:02;10.37;;;7.53;;
42600;SDS011;28229;48.856;9.088;2023-04-07T04:58:40;10.03;;;8.17;;
42600;SDS011;28229;48.856;9.088;2023-04-07T05:01:12;9.73;;;7.83;;
42600;SDS011;28229;48.856;9.088;2023-04-07T05:03:49;9.47;;;8.03;;
42600;SDS011;28229;48.856;9.088;2023-04-07T05:06:25;10.13;;;8.10;;
42600;SDS011;28229;48.856;9.088;2023-04-07T05:08:56;10.57;;;8.37;;
42600;SDS011;28229;48.856;9.088;2023-04-07T05:11:26;9.40;;;8.10;;
42600;SDS011;28229;48.856;9.088;2023-04-07T05:13:54;9.27;;;7.90;;
42600;SDS011;28229;48.856;9.088;2023-04-07T05:16:21;10.60;;;7.67;;
42600;SDS011;28229;48.856;9.088;2023-04-07T05:18:47;9.13;;;7.70;;
42600;SDS011;28229;48.856;9.088;2023-04-07T05:21:14;9.93;;;7.90;;
42600;SDS011;28229;48.856;9.088;2023-04-07T05:23:40;8.60;;;7.70;;
42600;SDS011;28229;48.856;9.088;2023-04-07T05:26:08;9.00;;;7.80;;
42600;SDS011;28229;48.856;9.088;2023-04-07T05:28:35;9.20;;;7.63;;
42600;SDS011;28229;48.856;9.088;2023-04-07T05:31:06;10.00;;;8.17;;
42600;SDS011;28229;48.856;9.088;2023-04-07T05:33:32;9.37;;;7.57;;
42600;SDS011;28229;48.856;9.088;2023-04-07T05:36:02;8.57;;;7.10;;
42600;SDS011;28229;48.856;9.088;2023-04-07T05:38:30;7.53;;;6.77;;
42600;SDS011;28229;48.856;9.088;2023-04-07T05:40:59;9.30;;;7.67;;
42600;SDS011;28229;48.856;9.088;2023-04-07T05:43:31;11.17;;;8.40;;
42600;SDS011;28229;48.856;9.088;2023-04-07T05:45:57;9.20;;;8.13;;
42600;SDS011;28229;48.856;9.088;2023-04-07T05:48:24;10.30;;;8.40;;
42600;SDS011;28229;48.856;9.088;2023-04-07T05:50:53;9.90;;;7.70;;
42600;SDS011;28229;48.856;9.088;2023-04-07T05:53:20;9.10;;;7.50;;
42600;SDS011;28229;48.856;9.088;2023-04-07T05:55:48;10.03;;;7.87;;
42600;SDS011;28229;48.856;9.088;2023-04-07T05:58:24;11.57;;;7.97;;
42600;SDS011;28229;48.856;9.088;2023-04-07T06:00:53;9.20;;;7.73;;
42600;SDS011;28229;48.856;9.088;2023-04-07T06:03:19;9.27;;;7.83;;
42600;SDS011;28229;48.856;9.088;2023-04-07T06:06:00;10.30;;;8.07;;
42600;SDS011;28229;48.856;9.088;2023-04-07T06:08:26;9.60;;;7.70;;
42600;SDS011;28229;48.856;9.088;2023-04-07T06:10:52;11.40;;;8.60;;
42600;SDS011;28229;48.856;9.088;2023-04-07T06:13:19;10.00;;;8.03;;
42600;SDS011;28229;48.856;9.088;2023-04-07T06:15:46;10.00;;;8.30;;
42600;SDS011;28229;48.856;9.088;2023-04-07T06:18:12;10.83;;;7.90;;
42600;SDS011;28229;48.856;9.088;2023-04-07T06:20:38;9.60;;;7.67;;
42600;SDS011;28229;48.856;9.088;2023-04-07T06:23:05;9.30;;;8.00;;
42600;SDS011;28229;48.856;9.088;2023-04-07T06:25:31;10.57;;;7.97;;
42600;SDS011;28229;48.856;9.088;2023-04-07T06:27:59;10.50;;;8.20;;
42600;SDS011;28229;48.856;9.088;2023-04-07T06:30:27;9.83;;;8.57;;
42600;SDS011;28229;48.856;9.088;2023-04-07T06:32:53;8.97;;;7.57;;
42600;SDS011;28229;48.856;9.088;2023-04-07T06:35:19;10.03;;;8.00;;
42600;SDS011;28229;48.856;9.088;2023-04-07T06:37:46;9.77;;;7.73;;
42600;SDS011;28229;48.856;9.088;2023-04-07T06:40:12;9.20;;;7.47;;
42600;SDS011;28229;48.856;9.088;2023-04-07T06:42:38;10.53;;;8.43;;
42600;SDS011;28229;48.856;9.088;2023-04-07T06:45:25;9.67;;;7.93;;
42600;SDS011;28229;48.856;9.088;2023-04-07T06:47:51;10.63;;;8.20;;
42600;SDS011;28229;48.856;9.088;2023-04-07T06:50:17;11.00;;;8.90;;
42600;SDS011;28229;48.856;9.088;2023-04-07T06:52:45;9.90;;;8.30;;
42600;SDS011;28229;48.856;9.088;2023-04-07T06:55:11;9.60;;;8.00;;
42600;SDS011;28229;48.856;9.088;2023-04-07T06:57:38;10.17;;;7.97;;
42600;SDS011;28229;48.856;9.088;2023-04-07T07:00:04;9.73;;;8.00;;
42600;SDS011;28229;48.856;9.088;2023-04-07T07:02:32;10.77;;;8.20;;
42600;SDS011;28229;48.856;9.088;2023-04-07T07:04:59;8.73;;;7.63;;
42600;SDS011;28229;48.856;9.088;2023-04-07T07:07:26;10.23;;;8.50;;
42600;SDS011;28229;48.856;9.088;2023-04-07T07:09:52;11.73;;;8.40;;
42600;SDS011;28229;48.856;9.088;2023-04-07T07:12:20;12.70;;;8.67;;
42600;SDS011;28229;48.856;9.088;2023-04-07T07:14:46;11.53;;;8.97;;
42600;SDS011;28229;48.856;9.088;2023-04-07T07:17:12;10.17;;;8.03;;
42600;SDS011;28229;48.856;9.088;2023-04-07T07:19:38;10.13;;;7.63;;
42600;SDS011;28229;48.856;9.088;2023-04-07T07:22:04;10.23;;;8.10;;
42600;SDS011;28229;48.856;9.088;2023-04-07T07:24:31;9.73;;;8.03;;
42600;SDS011;28229;48.856;9.088;2023-04-07T07:26:59;12.27;;;8.63;;
42600;SDS011;28229;48.856;9.088;2023-04-07T07:29:27;10.17;;;8.17;;
42600;SDS011;28229;48.856;9.088;2023-04-07T07:31:53;11.97;;;8.60;;
42600;SDS011;28229;48.856;9.088;2023-04-07T07:34:20;9.93;;;8.33;;
42600;SDS011;28229;48.856;9.088;2023-04-07T07:36:48;9.83;;;8.27;;
42600;SDS011;28229;48.856;9.088;2023-04-07T07:39:15;8.60;;;7.70;;
42600;SDS011;28229;48.856;9.088;2023-04-07T07:41:41;9.53;;;7.93;;
42600;SDS011;28229;48.856;9.088;2023-04-07T07:44:07;9.57;;;7.87;;
42600;SDS011;28229;48.856;9.088;2023-04-07T07:46:34;8.80;;;6.97;;
42600;SDS011;28229;48.856;9.088;2023-04-07T07:49:00;8.63;;;7.70;;
42600;SDS011;28229;48.856;9.088;2023-04-07T07:51:27;7.83;;;6.90;;
42600;SDS011;28229;48.856;9.088;2023-04-07T07:53:53;7.93;;;6.80;;
42600;SDS011;28229;48.856;9.088;2023-04-07T07:56:19;8.77;;;7.33;;
42600;SDS011;28229;48.856;9.088;2023-04-07T07:58:46;7.37;;;6.67;;
42600;SDS011;28229;48.856;9.088;2023-04-07T08:01:13;9.53;;;6.83;;
42600;SDS011;28229;48.856;9.088;2023-04-07T08:03:39;8.93;;;7.50;;
42600;SDS011;28229;48.856;9.088;2023-04-07T08:06:05;7.87;;;6.70;;
42600;SDS011;28229;48.856;9.088;2023-04-07T08:08:32;9.07;;;6.77;;
42600;SDS011;28229;48.856;9.088;2023-04-07T08:10:58;8.67;;;6.77;;
42600;SDS011;28229;48.856;9.088;2023-04-07T08:13:24;6.37;;;5.70;;
42600;SDS011;28229;48.856;9.088;2023-04-07T08:15:52;6.83;;;6.13;;
42600;SDS011;28229;48.856;9.088;2023-04-07T08:18:19;7.43;;;6.30;;
42600;SDS011;28229;48.856;9.088;2023-04-07T08:20:45;6.73;;;5.63;;
42600;SDS011;28229;48.856;9.088;2023-04-07T08:23:11;6.93;;;5.37;;
42600;SDS011;28229;48.856;9.088;2023-04-07T08:25:45;6.90;;;5.10;;
42600;SDS011;28229;48.856;9.088;2023-04-07T08:28:11;6.07;;;5.27;;
42600;SDS011;28229;48.856;9.088;2023-04-07T08:30:37;5.97;;;4.93;;
42600;SDS011;28229;48.856;9.088;2023-04-07T08:33:04;7.23;;;5.00;;
42600;SDS011;28229;48.856;9.088;2023-04-07T08:35:30;4.93;;;4.43;;
42600;SDS011;28229;48.856;9.088;2023-04-07T08:37:57;5.13;;;4.57;;
42600;SDS011;28229;48.856;9.088;2023-04-07T08:40:23;5.63;;;4.20;;
42600;SDS011;28229;48.856;9.088;2023-04-07T08:42:49;4.37;;;3.97;;
42600;SDS011;28229;48.856;9.088;2023-04-07T08:45:17;5.37;;;4.20;;
42600;SDS011;28229;48.856;9.088;2023-04-07T08:47:45;5.80;;;4.40;;
42600;SDS011;28229;48.856;9.088;2023-04-07T08:50:13;5.03;;;4.33;;
42600;SDS011;28229;48.856;9.088;2023-04-07T08:52:50;5.47;;;4.40;;
42600;SDS011;28229;48.856;9.088;2023-04-07T08:55:19;5.20;;;4.67;;
42600;SDS011;28229;48.856;9.088;2023-04-07T08:57:45;5.53;;;4.23;;
42600;SDS011;28229;48.856;9.088;2023-04-07T09:00:12;6.40;;;5.80;;
42600;SDS011;28229;48.856;9.088;2023-04-07T09:02:39;7.30;;;6.00;;
42600;SDS011;28229;48.856;9.088;2023-04-07T09:05:09;6.63;;;5.40;;
42600;SDS011;28229;48.856;9.088;2023-04-07T09:07:37;7.50;;;6.30;;
42600;SDS011;28229;48.856;9.088;2023-04-07T09:10:05;5.33;;;4.80;;
42600;SDS011;28229;48.856;9.088;2023-04-07T09:12:32;5.30;;;4.27;;
42600;SDS011;28229;48.856;9.088;2023-04-07T09:15:01;5.47;;;4.97;;
42600;SDS011;28229;48.856;9.088;2023-04-07T09:17:28;5.10;;;4.53;;
42600;SDS011;28229;48.856;9.088;2023-04-07T09:19:58;5.23;;;4.73;;
42600;SDS011;28229;48.856;9.088;2023-04-07T09:22:39;7.07;;;5.10;;
42600;SDS011;28229;48.856;9.088;2023-04-07T09:25:11;5.93;;;5.33;;
42600;SDS011;28229;48.856;9.088;2023-04-07T09:27:37;5.57;;;5.07;;
42600;SDS011;28229;48.856;9.088;2023-04-07T09:30:13;6.30;;;5.07;;
42600;SDS011;28229;48.856;9.088;2023-04-07T09:32:40;4.80;;;4.30;;
42600;SDS011;28229;48.856;9.088;2023-04-07T09:35:07;4.93;;;4.43;;
42600;SDS011;28229;48.856;9.088;2023-04-07T09:37:34;4.87;;;4.40;;
42600;SDS011;28229;48.856;9.088;2023-04-07T09:40:00;5.00;;;4.40;;
42600;SDS011;28229;48.856;9.088;2023-04-07T09:42:27;5.23;;;4.27;;
42600;SDS011;28229;48.856;9.088;2023-04-07T09:44:57;4.93;;;4.37;;
42600;SDS011;28229;48.856;9.088;2023-04-07T09:47:25;8.03;;;6.00;;
42600;SDS011;28229;48.856;9.088;2023-04-07T09:49:54;6.67;;;4.50;;
42600;SDS011;28229;48.856;9.088;2023-04-07T09:52:21;6.23;;;3.93;;
42600;SDS011;28229;48.856;9.088;2023-04-07T09:54:51;4.57;;;3.73;;
42600;SDS011;28229;48.856;9.088;2023-04-07T09:57:18;3.57;;;3.20;;
42600;SDS011;28229;48.856;9.088;2023-04-07T09:59:46;6.23;;;3.73;;
42600;SDS011;28229;48.856;9.088;2023-04-07T10:02:13;6.40;;;4.13;;
42600;SDS011;28229;48.856;9.088;2023-04-07T10:04:39;5.97;;;4.47;;
42600;SDS011;28229;48.856;9.088;2023-04-07T10:07:06;5.20;;;4.40;;
42600;SDS011;28229;48.856;9.088;2023-04-07T10:09:32;5.23;;;4.70;;
42600;SDS011;28229;48.856;9.088;2023-04-07T10:11:58;5.00;;;4.10;;
42600;SDS011;28229;48.856;9.088;2023-04-07T10:14:25;5.70;;;4.27;;
42600;SDS011;28229;48.856;9.088;2023-04-07T10:16:53;4.77;;;3.90;;
42600;SDS011;28229;48.856;9.088;2023-04-07T10:19:19;6.13;;;3.97;;
42600;SDS011;28229;48.856;9.088;2023-04-07T10:21:47;4.53;;;4.07;;
42600;SDS011;28229;48.856;9.088;2023-04-07T10:24:24;4.67;;;4.27;;
42600;SDS011;28229;48.856;9.088;2023-04-07T10:26:54;5.23;;;4.10;;
42600;SDS011;28229;48.856;9.088;2023-04-07T10:29:24;4.20;;;3.90;;
42600;SDS011;28229;48.856;9.088;2023-04-07T10:31:52;5.43;;;4.00;;
42600;SDS011;28229;48.856;9.088;2023-04-07T10:34:43;4.73;;;4.23;;
42600;SDS011;28229;48.856;9.088;2023-04-07T10:37:18;5.47;;;4.13;;
42600;SDS011;28229;48.856;9.088;2023-04-07T10:39:51;6.63;;;4.87;;
42600;SDS011;28229;48.856;9.088;2023-04-07T10:45:07;6.33;;;5.10;;
42600;SDS011;28229;48.856;9.088;2023-04-07T10:47:34;6.37;;;5.27;;
42600;SDS011;28229;48.856;9.088;2023-04-07T10:50:20;6.33;;;5.20;;
42600;SDS011;28229;48.856;9.088;2023-04-07T10:52:48;6.83;;;5.13;;
42600;SDS011;28229;48.856;9.088;2023-04-07T10:58:17;7.47;;;5.13;;
42600;SDS011;28229;48.856;9.088;2023-04-07T11:03:37;6.50;;;5.50;;
42600;SDS011;28229;48.856;9.088;2023-04-07T11:06:17;6.33;;;5.43;;
42600;SDS011;28229;48.856;9.088;2023-04-07T11:08:44;7.20;;;5.57;;
42600;SDS011;28229;48.856;9.088;2023-04-07T11:11:12;5.83;;;5.20;;
42600;SDS011;28229;48.856;9.088;2023-04-07T11:13:46;7.77;;;5.70;;
42600;SDS011;28229;48.856;9.088;2023-04-07T11:16:15;7.17;;;5.50;;
42600;SDS011;28229;48.856;9.088;2023-04-07T11:18:45;6.27;;;5.67;;
42600;SDS011;28229;48.856;9.088;2023-04-07T11:21:16;9.13;;;6.33;;
42600;SDS011;28229;48.856;9.088;2023-04-07T11:23:44;6.63;;;5.93;;
42600;SDS011;28229;48.856;9.088;2023-04-07T11:26:12;6.20;;;5.60;;
42600;SDS011;28229;48.856;9.088;2023-04-07T11:28:46;10.53;;;6.23;;
42600;SDS011;28229;48.856;9.088;2023-04-07T11:31:23;9.60;;;5.03;;
42600;SDS011;28229;48.856;9.088;2023-04-07T11:34:02;7.00;;;4.77;;
42600;SDS011;28229;48.856;9.088;2023-04-07T11:36:30;6.60;;;5.23;;
42600;SDS011;28229;48.856;9.088;2023-04-07T11:38:59;5.93;;;4.53;;
42600;SDS011;28229;48.856;9.088;2023-04-07T11:41:28;7.23;;;4.73;;
42600;SDS011;28229;48.856;9.088;2023-04-07T11:44:03;5.97;;;4.20;;
42600;SDS011;28229;48.856;9.088;2023-04-07T11:46:33;5.23;;;4.20;;
42600;SDS011;28229;48.856;9.088;2023-04-07T11:49:10;6.23;;;4.53;;
42600;SDS011;28229;48.856;9.088;2023-04-07T11:51:42;5.97;;;4.80;;
42600;SDS011;28229;48.856;9.088;2023-04-07T11:54:09;5.90;;;4.90;;
42600;SDS011;28229;48.856;9.088;2023-04-07T11:56:45;7.80;;;5.90;;
42600;SDS011;28229;48.856;9.088;2023-04-07T12:01:48;6.37;;;5.40;;
42600;SDS011;28229;48.856;9.088;2023-04-07T12:04:15;5.63;;;5.03;;
42600;SDS011;28229;48.856;9.088;2023-04-07T12:06:44;6.87;;;5.97;;
42600;SDS011;28229;48.856;9.088;2023-04-07T12:12:12;5.20;;;4.57;;
42600;SDS011;28229;48.856;9.088;2023-04-07T12:14:38;6.93;;;4.90;;
42600;SDS011;28229;48.856;9.088;2023-04-07T12:17:04;8.40;;;6.00;;
42600;SDS011;28229;48.856;9.088;2023-04-07T12:19:32;8.17;;;7.27;;
42600;SDS011;28229;48.856;9.088;2023-04-07T12:22:00;8.40;;;6.60;;
42600;SDS011;28229;48.856;9.088;2023-04-07T12:24:26;5.10;;;4.60;;
42600;SDS011;28229;48.856;9.088;2023-04-07T12:26:53;4.33;;;3.90;;
42600;SDS011;28229;48.856;9.088;2023-04-07T12:29:19;4.83;;;3.80;;
42600;SDS011;28229;48.856;9.088;2023-04-07T12:31:45;4.93;;;3.60;;
42600;SDS011;28229;48.856;9.088;2023-04-07T12:34:12;5.43;;;3.00;;
42600;SDS011;28229;48.856;9.088;2023-04-07T12:36:38;2.63;;;2.43;;
42600;SDS011;28229;48.856;9.088;2023-04-07T12:39:04;4.97;;;2.70;;
42600;SDS011;28229;48.856;9.088;2023-04-07T12:41:31;4.87;;;2.93;;
42600;SDS011;28229;48.856;9.088;2023-04-07T12:43:57;3.10;;;2.70;;
42600;SDS011;28229;48.856;9.088;2023-04-07T12:46:23;4.30;;;2.53;;
42600;SDS011;28229;48.856;9.088;2023-04-07T12:48:49;3.20;;;2.90;;
42600;SDS011;28229;48.856;9.088;2023-04-07T12:51:16;3.10;;;2.80;;
42600;SDS011;28229;48.856;9.088;2023-04-07T12:53:42;4.23;;;3.73;;
42600;SDS011;28229;48.856;9.088;2023-04-07T12:56:08;4.70;;;3.67;;
42600;SDS011;28229;48.856;9.088;2023-04-07T12:58:35;4.47;;;4.07;;
42600;SDS011;28229;48.856;9.088;2023-04-07T13:01:01;4.63;;;3.87;;
42600;SDS011;28229;48.856;9.088;2023-04-07T13:03:27;6.63;;;4.93;;
42600;SDS011;28229;48.856;9.088;2023-04-07T13:05:53;6.30;;;4.40;;
42600;SDS011;28229;48.856;9.088;2023-04-07T13:08:20;4.57;;;3.93;;
42600;SDS011;28229;48.856;9.088;2023-04-07T13:10:46;4.80;;;4.30;;
42600;SDS011;28229;48.856;9.088;2023-04-07T13:13:13;5.33;;;4.80;;
42600;SDS011;28229;48.856;9.088;2023-04-07T13:15:39;4.77;;;4.27;;
42600;SDS011;28229;48.856;9.088;2023-04-07T13:18:05;5.80;;;4.53;;
42600;SDS011;28229;48.856;9.088;2023-04-07T13:20:32;5.60;;;5.07;;
42600;SDS011;28229;48.856;9.088;2023-04-07T13:22:59;6.53;;;5.20;;
42600;SDS011;28229;48.856;9.088;2023-04-07T13:25:25;5.53;;;5.03;;
42600;SDS011;28229;48.856;9.088;2023-04-07T13:27:52;5.00;;;4.50;;
42600;SDS011;28229;48.856;9.088;2023-04-07T13:30:18;6.10;;;5.50;;
42600;SDS011;28229;48.856;9.088;2023-04-07T13:32:44;5.60;;;5.10;;
42600;SDS011;28229;48.856;9.088;2023-04-07T13:35:16;5.50;;;4.70;;
42600;SDS011;28229;48.856;9.088;2023-04-07T13:37:43;6.40;;;4.80;;
42600;SDS011;28229;48.856;9.088;2023-04-07T13:40:09;6.27;;;5.33;;
42600;SDS011;28229;48.856;9.088;2023-04-07T13:42:37;6.00;;;4.43;;
42600;SDS011;28229;48.856;9.088;2023-04-07T13:45:04;5.93;;;5.23;;
42600;SDS011;28229;48.856;9.088;2023-04-07T13:47:30;7.80;;;5.40;;
42600;SDS011;28229;48.856;9.088;2023-04-07T13:49:59;6.53;;;5.07;;
42600;SDS011;28229;48.856;9.088;2023-04-07T13:52:26;7.43;;;6.63;;
42600;SDS011;28229;48.856;9.088;2023-04-07T13:54:53;6.23;;;5.33;;
42600;SDS011;28229;48.856;9.088;2023-04-07T13:57:19;8.17;;;6.47;;
42600;SDS011;28229;48.856;9.088;2023-04-07T13:59:47;6.03;;;5.40;;
42600;SDS011;28229;48.856;9.088;2023-04-07T14:02:14;7.73;;;5.33;;
42600;SDS011;28229;48.856;9.088;2023-04-07T14:04:40;6.90;;;5.33;;
42600;SDS011;28229;48.856;9.088;2023-04-07T14:07:06;5.20;;;4.60;;
42600;SDS011;28229;48.856;9.088;2023-04-07T14:09:32;6.63;;;4.60;;
42600;SDS011;28229;48.856;9.088;2023-04-07T14:11:58;8.23;;;5.63;;
42600;SDS011;28229;48.856;9.088;2023-04-07T14:14:24;9.33;;;6.30;;
42600;SDS011;28229;48.856;9.088;2023-04-07T14:16:51;7.13;;;6.10;;
42600;SDS011;28229;48.856;9.088;2023-04-07T14:19:19;6.10;;;5.30;;
42600;SDS011;28229;48.856;9.088;2023-04-07T14:21:47;6.60;;;5.17;;
42600;SDS011;28229;48.856;9.088;2023-04-07T14:24:13;7.10;;;5.63;;
42600;SDS011;28229;48.856;9.088;2023-04-07T14:26:39;8.23;;;5.17;;
42600;SDS011;28229;48.856;9.088;2023-04-07T14:29:08;7.13;;;4.83;;
42600;SDS011;28229;48.856;9.088;2023-04-07T14:31:34;6.43;;;4.30;;
42600;SDS011;28229;48.856;9.088;2023-04-07T14:34:00;5.70;;;4.43;;
42600;SDS011;28229;48.856;9.088;2023-04-07T14:36:26;5.50;;;4.23;;
42600;SDS011;28229;48.856;9.088;2023-04-07T14:38:53;4.50;;;3.90;;
42600;SDS011;28229;48.856;9.088;2023-04-07T14:41:20;6.47;;;4.43;;
42600;SDS011;28229;48.856;9.088;2023-04-07T14:43:46;5.97;;;4.03;;
42600;SDS011;28229;48.856;9.088;2023-04-07T14:46:14;4.87;;;3.80;;
42600;SDS011;28229;48.856;9.088;2023-04-07T14:48:40;5.37;;;4.10;;
42600;SDS011;28229;48.856;9.088;2023-04-07T14:51:10;5.07;;;3.60;;
42600;SDS011;28229;48.856;9.088;2023-04-07T14:53:37;4.47;;;3.60;;
42600;SDS011;28229;48.856;9.088;2023-04-07T14:56:05;4.93;;;3.43;;
42600;SDS011;28229;48.856;9.088;2023-04-07T14:58:31;4.17;;;3.67;;
42600;SDS011;28229;48.856;9.088;2023-04-07T15:00:57;3.93;;;3.47;;
42600;SDS011;28229;48.856;9.088;2023-04-07T15:03:24;5.43;;;4.20;;
42600;SDS011;28229;48.856;9.088;2023-04-07T15:05:50;4.80;;;4.10;;
42600;SDS011;28229;48.856;9.088;2023-04-07T15:08:16;6.07;;;4.23;;
42600;SDS011;28229;48.856;9.088;2023-04-07T15:10:42;4.60;;;3.93;;